Time;durP1;ratioP1;P1;durP2;ratioP2;P2;SDS_P1;SDS_P2;PMS_P1;PMS_P2;Temp;Humidity;BMP_temperature;BMP_pressure;BME280_temperature;BME280_humidity;BME280_pressure;Samples;Min_cycle;Max_cycle;Signal;HPM_P1;HPM_P2
2022/08/10 00:01:36;;;;;;;3.88;1.75;;;;;;;;;;4841293;29;20042;-51
2022/08/10 00:04:04;;;;;;;2.92;1.52;;;;;;;;;;4841256;29;20045;-50
2022/08/10 00:06:31;;;;;;;3.83;1.50;;;;;;;;;;4841238;29;20049;-48
2022/08/10 00:08:58;;;;;;;5.35;1.70;;;;;;;;;;4841067;29;20084;-49
2022/08/10 00:11:25;;;;;;;5.28;2.00;;;;;;;;;;4841208;29;20048;-46
2022/08/10 00:13:53;;;;;;;4.45;1.90;;;;;;;;;;4841252;29;20046;-52
2022/08/10 00:16:21;;;;;;;4.60;1.80;;;;;;;;;;4832149;29;20107;-50
2022/08/10 00:18:48;;;;;;;3.38;2.08;;;;;;;;;;4823326;29;20038;-49
2022/08/10 00:21:19;;;;;;;2.88;1.52;;;;;;;;;;4822927;29;20035;-50
2022/08/10 00:23:46;;;;;;;3.30;1.90;;;;;;;;;;4822862;29;20061;-49
2022/08/10 00:26:14;;;;;;;3.28;1.88;;;;;;;;;;4822559;29;20047;-48
2022/08/10 00:28:44;;;;;;;2.72;1.30;;;;;;;;;;4822719;29;20525;-50
2022/08/10 00:31:11;;;;;;;2.58;1.60;;;;;;;;;;4823338;29;20167;-51
2022/08/10 00:33:38;;;;;;;3.10;1.63;;;;;;;;;;4823318;29;20042;-51
2022/08/10 00:36:06;;;;;;;4.15;1.48;;;;;;;;;;4822932;29;20499;-49
2022/08/10 00:38:35;;;;;;;2.22;1.23;;;;;;;;;;4822759;29;20058;-49
2022/08/10 00:41:03;;;;;;;2.78;1.48;;;;;;;;;;4822816;29;20103;-51
2022/08/10 00:43:30;;;;;;;2.45;1.30;;;;;;;;;;4822564;29;20102;-50
2022/08/10 00:45:58;;;;;;;4.32;1.70;;;;;;;;;;4822728;29;20074;-49
2022/08/10 00:48:28;;;;;;;4.53;1.45;;;;;;;;;;4826998;29;20126;-48
2022/08/10 00:50:59;;;;;;;4.80;1.70;;;;;;;;;;4840960;29;20406;-51
2022/08/10 00:53:27;;;;;;;2.30;1.30;;;;;;;;;;4840963;29;20050;-48
2022/08/10 00:55:55;;;;;;;2.47;1.38;;;;;;;;;;4826013;29;20072;-50
2022/08/10 00:58:42;;;;;;;2.63;1.77;;;;;;;;;;4822664;29;20043;-50
2022/08/10 01:01:10;;;;;;;3.83;1.50;;;;;;;;;;4822931;29;20047;-47
2022/08/10 01:03:57;;;;;;;4.28;1.52;;;;;;;;;;4821103;29;20051;-46
2022/08/10 01:06:47;;;;;;;4.53;1.90;;;;;;;;;;4822543;29;20050;-47
2022/08/10 01:09:38;;;;;;;2.72;1.52;;;;;;;;;;4822398;29;20103;-49
2022/08/10 01:12:12;;;;;;;3.45;1.67;;;;;;;;;;4822163;29;20080;-50
2022/08/10 01:15:02;;;;;;;;;;;;;;;;;;4822949;29;20395;-47
2022/08/10 01:18:02;;;;;;;2.80;1.58;;;;;;;;;;4822122;29;19925;-51
2022/08/10 01:21:01;;;;;;;3.97;1.77;;;;;;;;;;4801553;29;20050;-49
2022/08/10 01:23:56;;;;;;;3.55;1.67;;;;;;;;;;4807710;29;20464;-52
2022/08/10 01:26:42;;;;;;;7.40;1.67;;;;;;;;;;4825126;29;20111;-49
2022/08/10 01:29:33;;;;;;;2.58;1.42;;;;;;;;;;4825099;29;20713;-50
2022/08/10 01:32:05;;;;;;;2.55;1.50;;;;;;;;;;4825597;29;20050;-48
2022/08/10 01:34:54;;;;;;;;;;;;;;;;;;4825623;29;20058;-44
2022/08/10 01:37:28;;;;;;;2.88;1.35;;;;;;;;;;4825297;29;19928;-49
2022/08/10 01:39:58;;;;;;;2.78;1.60;;;;;;;;;;4825221;29;20629;-50
2022/08/10 01:42:31;;;;;;;5.22;1.80;;;;;;;;;;4825316;29;20446;-50
2022/08/10 01:45:03;;;;;;;5.22;1.88;;;;;;;;;;4825337;29;20042;-47
2022/08/10 01:50:39;;;;;;;3.97;1.55;;;;;;;;;;4807127;29;20043;-51
2022/08/10 01:53:33;;;;;;;5.40;1.73;;;;;;;;;;4807193;29;20039;-52
2022/08/10 01:56:13;;;;;;;3.55;1.90;;;;;;;;;;4807055;29;20423;-51
2022/08/10 01:58:43;;;;;;;4.25;1.80;;;;;;;;;;4807183;29;20119;-49
2022/08/10 02:01:13;;;;;;;4.00;1.27;;;;;;;;;;4807002;29;20092;-50
2022/08/10 02:03:47;;;;;;;4.57;1.65;;;;;;;;;;4807057;29;20058;-49
2022/08/10 02:06:35;;;;;;;4.07;2.35;;;;;;;;;;4806720;29;20043;-50
2022/08/10 02:09:05;;;;;;;4.63;1.23;;;;;;;;;;4806338;29;20360;-49
2022/08/10 02:11:35;;;;;;;2.90;1.30;;;;;;;;;;4805303;29;20137;-49
2022/08/10 02:14:30;;;;;;;3.60;1.55;;;;;;;;;;4806898;29;20050;-48
2022/08/10 02:17:07;;;;;;;3.67;1.52;;;;;;;;;;4806518;29;20059;-52
2022/08/10 02:20:00;;;;;;;2.05;1.20;;;;;;;;;;4806897;29;20047;-52
2022/08/10 02:22:29;;;;;;;2.08;1.40;;;;;;;;;;4806437;29;20059;-51
2022/08/10 02:25:13;;;;;;;3.63;1.60;;;;;;;;;;4806609;29;20046;-48
2022/08/10 02:28:03;;;;;;;7.97;2.67;;;;;;;;;;4806483;29;20492;-51
2022/08/10 02:30:32;;;;;;;13.30;2.88;;;;;;;;;;4806658;29;20047;-49
2022/08/10 02:33:00;;;;;;;4.25;2.25;;;;;;;;;;4806418;29;20047;-48
2022/08/10 02:35:29;;;;;;;2.80;1.55;;;;;;;;;;4823211;29;20091;-48
2022/08/10 02:38:22;;;;;;;2.83;1.30;;;;;;;;;;4824293;29;20103;-47
2022/08/10 02:41:17;;;;;;;3.20;1.80;;;;;;;;;;4824872;29;20483;-47
2022/08/10 02:44:12;;;;;;;2.08;1.40;;;;;;;;;;4824503;29;20153;-47
2022/08/10 02:47:08;;;;;;;2.83;1.50;;;;;;;;;;4824564;29;20636;-48
2022/08/10 02:49:42;;;;;;;3.15;1.67;;;;;;;;;;4837083;29;20080;-47
2022/08/10 02:52:18;;;;;;;;;;;;;;;;;;4842803;29;20045;-47
2022/08/10 02:54:52;;;;;;;5.32;1.73;;;;;;;;;;4842334;29;20441;-51
2022/08/10 02:57:27;;;;;;;9.20;1.70;;;;;;;;;;4842424;29;20042;-47
2022/08/10 03:00:01;;;;;;;2.50;1.60;;;;;;;;;;4842237;29;20048;-48
2022/08/10 03:02:33;;;;;;;2.53;1.38;;;;;;;;;;4838336;29;20055;-49
2022/08/10 03:05:05;;;;;;;5.57;1.70;;;;;;;;;;4823782;29;20039;-46
2022/08/10 03:07:38;;;;;;;5.80;1.80;;;;;;;;;;4823793;29;20499;-49
2022/08/10 03:10:38;;;;;;;2.72;1.88;;;;;;;;;;4823935;29;20050;-46
2022/08/10 03:13:08;;;;;;;4.47;2.10;;;;;;;;;;4823037;29;20054;-47
2022/08/10 03:15:37;;;;;;;5.55;2.10;;;;;;;;;;4823686;29;20126;-48
2022/08/10 03:18:06;;;;;;;4.55;1.83;;;;;;;;;;4823736;29;20057;-48
2022/08/10 03:20:40;;;;;;;3.55;1.90;;;;;;;;;;4823668;29;20054;-47
2022/08/10 03:23:13;;;;;;;3.17;1.60;;;;;;;;;;4823501;29;20065;-47
2022/08/10 03:25:43;;;;;;;4.78;2.00;;;;;;;;;;4822920;29;20051;-46
2022/08/10 03:28:25;;;;;;;3.65;1.77;;;;;;;;;;4823618;29;20547;-49
2022/08/10 03:30:54;;;;;;;2.92;1.63;;;;;;;;;;4823611;29;20046;-49
2022/08/10 03:33:27;;;;;;;4.38;1.40;;;;;;;;;;4823754;29;20098;-48
2022/08/10 03:35:55;;;;;;;3.22;1.27;;;;;;;;;;4823536;29;20042;-49
2022/08/10 03:38:44;;;;;;;25.10;13.68;;;;;;;;;;4823815;29;20125;-47
2022/08/10 03:41:14;;;;;;;20.45;10.30;;;;;;;;;;4823705;29;20396;-48
2022/08/10 03:43:46;;;;;;;6.93;4.10;;;;;;;;;;4823267;29;20076;-48
2022/08/10 03:46:17;;;;;;;3.70;1.90;;;;;;;;;;4823358;29;20079;-47
2022/08/10 03:48:46;;;;;;;6.43;1.90;;;;;;;;;;4829986;29;20069;-48
2022/08/10 03:51:18;;;;;;;5.30;1.98;;;;;;;;;;4841588;29;20038;-46
2022/08/10 03:53:48;;;;;;;3.30;1.65;;;;;;;;;;4841159;29;20046;-47
2022/08/10 03:56:35;;;;;;;3.80;1.80;;;;;;;;;;4841388;29;20504;-47
2022/08/10 03:59:03;;;;;;;3.22;1.48;;;;;;;;;;4841155;29;20069;-47
2022/08/10 04:01:31;;;;;;;8.38;1.70;;;;;;;;;;4841312;29;20042;-45
2022/08/10 04:04:21;;;;;;;5.55;1.95;;;;;;;;;;4841391;29;20063;-48
2022/08/10 04:06:53;;;;;;;2.40;1.08;;;;;;;;;;4841154;29;20141;-50
2022/08/10 04:09:29;;;;;;;2.22;1.42;;;;;;;;;;4841129;29;20048;-49
2022/08/10 04:12:17;;;;;;;4.70;1.55;;;;;;;;;;4841078;29;20124;-46
2022/08/10 04:14:44;;;;;;;32.47;17.52;;;;;;;;;;4841267;29;20102;-51
2022/08/10 04:17:23;;;;;;;22.38;12.35;;;;;;;;;;4841071;29;20078;-50
2022/08/10 04:20:28;;;;;;;13.43;8.18;;;;;;;;;;4841295;29;20046;-46
2022/08/10 04:23:06;;;;;;;10.18;4.10;;;;;;;;;;4840925;29;20571;-47
2022/08/10 04:25:35;;;;;;;4.65;2.40;;;;;;;;;;4841093;29;20141;-47
2022/08/10 04:28:03;;;;;;;7.45;1.95;;;;;;;;;;4840845;29;20505;-47
2022/08/10 04:30:31;;;;;;;6.93;2.33;;;;;;;;;;4841067;29;20045;-48
2022/08/10 04:33:01;;;;;;;3.88;2.58;;;;;;;;;;4839174;29;20460;-48
2022/08/10 04:35:30;;;;;;;3.03;2.20;;;;;;;;;;4822507;29;20050;-45
2022/08/10 04:37:59;;;;;;;3.70;2.00;;;;;;;;;;4822849;29;20062;-48
2022/08/10 04:40:30;;;;;;;3.05;1.80;;;;;;;;;;4822687;29;20082;-48
2022/08/10 04:42:59;;;;;;;4.57;2.10;;;;;;;;;;4822610;29;20049;-47
2022/08/10 04:45:34;;;;;;;4.03;2.20;;;;;;;;;;4822766;29;20143;-48
2022/08/10 04:48:20;;;;;;;5.15;2.05;;;;;;;;;;4826040;29;20073;-51
2022/08/10 04:51:09;;;;;;;2.90;1.75;;;;;;;;;;4841299;29;20106;-46
2022/08/10 04:53:47;;;;;;;42.72;18.80;;;;;;;;;;4840831;29;20046;-49
2022/08/10 04:56:36;;;;;;;9.13;4.70;;;;;;;;;;4841804;29;20073;-46
2022/08/10 04:59:09;;;;;;;2.42;1.67;;;;;;;;;;4844489;29;20242;-48
2022/08/10 05:01:37;;;;;;;4.07;1.65;;;;;;;;;;4844276;29;20042;-48
2022/08/10 05:04:25;;;;;;;2.17;1.35;;;;;;;;;;4842946;29;20050;-50
2022/08/10 05:07:11;;;;;;;5.85;2.08;;;;;;;;;;4844350;29;20054;-52
2022/08/10 05:09:44;;;;;;;5.82;1.88;;;;;;;;;;4844307;29;20054;-49
2022/08/10 05:12:33;;;;;;;5.93;3.38;;;;;;;;;;4843891;29;20034;-48
2022/08/10 05:15:07;;;;;;;7.75;5.10;;;;;;;;;;4844228;29;20080;-50
2022/08/10 05:17:36;;;;;;;33.88;19.95;;;;;;;;;;4844059;29;20069;-45
2022/08/10 05:20:04;;;;;;;5.22;3.38;;;;;;;;;;4843960;29;20039;-49
2022/08/10 05:22:35;;;;;;;3.20;1.73;;;;;;;;;;4843550;29;20102;-48
2022/08/10 05:25:04;;;;;;;4.15;2.38;;;;;;;;;;4836995;29;20050;-47
2022/08/10 05:27:32;;;;;;;3.15;1.70;;;;;;;;;;4825590;29;20043;-51
2022/08/10 05:30:00;;;;;;;10.48;6.78;;;;;;;;;;4825434;29;20111;-51
2022/08/10 05:32:32;;;;;;;5.65;2.70;;;;;;;;;;4825385;29;20085;-48
2022/08/10 05:35:23;;;;;;;2.58;1.73;;;;;;;;;;4825407;29;20065;-51
2022/08/10 05:37:51;;;;;;;3.35;1.80;;;;;;;;;;4825429;29;20039;-49
2022/08/10 05:40:39;;;;;;;4.05;2.40;;;;;;;;;;4825185;29;20507;-48
2022/08/10 05:43:15;;;;;;;2.30;1.40;;;;;;;;;;4825412;29;20050;-53
2022/08/10 05:45:45;;;;;;;5.80;4.18;;;;;;;;;;4825484;29;20103;-47
2022/08/10 05:48:36;;;;;;;16.98;12.23;;;;;;;;;;4825094;29;20042;-48
2022/08/10 05:51:24;;;;;;;5.90;3.83;;;;;;;;;;4825046;29;20043;-47
2022/08/10 05:53:52;;;;;;;7.43;1.63;;;;;;;;;;4824772;29;20049;-47
2022/08/10 05:56:30;;;;;;;2.58;1.23;;;;;;;;;;4824075;29;20096;-48
2022/08/10 05:59:18;;;;;;;3.38;1.52;;;;;;;;;;4822704;29;20054;-50
2022/08/10 06:02:07;;;;;;;1.42;0.98;;;;;;;;;;4823302;29;20038;-51
2022/08/10 06:04:57;;;;;;;2.08;1.00;;;;;;;;;;4822938;29;20784;-48
2022/08/10 06:07:28;;;;;;;1.50;0.90;;;;;;;;;;4822569;29;20057;-51
2022/08/10 06:09:58;;;;;;;2.65;1.20;;;;;;;;;;4822909;29;20142;-49
2022/08/10 06:12:29;;;;;;;2.08;1.30;;;;;;;;;;4823948;29;20507;-47
2022/08/10 06:15:05;;;;;;;1.73;1.08;;;;;;;;;;4824465;29;20100;-48
2022/08/10 06:17:48;;;;;;;1.35;1.00;;;;;;;;;;4824778;29;20047;-50
2022/08/10 06:20:30;;;;;;;1.98;0.90;;;;;;;;;;4824798;29;20049;-47
2022/08/10 06:23:03;;;;;;;1.30;0.90;;;;;;;;;;4824612;29;20103;-50
2022/08/10 06:25:31;;;;;;;1.50;1.00;;;;;;;;;;4824763;29;20050;-49
2022/08/10 06:28:21;;;;;;;3.42;1.25;;;;;;;;;;4824322;29;20039;-52
2022/08/10 06:30:53;;;;;;;1.52;0.90;;;;;;;;;;4808400;29;20091;-49
2022/08/10 06:33:23;;;;;;;2.45;1.30;;;;;;;;;;4824330;29;20396;-48
2022/08/10 06:35:54;;;;;;;1.20;0.93;;;;;;;;;;4824652;29;20472;-49
2022/08/10 06:38:23;;;;;;;2.40;1.15;;;;;;;;;;4824349;29;20039;-50
2022/08/10 06:40:55;;;;;;;3.83;1.10;;;;;;;;;;4824640;29;20050;-48
2022/08/10 06:43:23;;;;;;;4.57;0.88;;;;;;;;;;4823123;29;20052;-52
2022/08/10 06:45:59;;;;;;;2.88;1.00;;;;;;;;;;4824459;29;20046;-48
2022/08/10 06:48:49;;;;;;;4.47;1.20;;;;;;;;;;4829799;29;20042;-49
2022/08/10 06:51:22;;;;;;;1.45;0.80;;;;;;;;;;4841526;29;20075;-48
2022/08/10 06:53:56;;;;;;;1.98;1.05;;;;;;;;;;4842221;29;20046;-51
2022/08/10 06:56:26;;;;;;;1.65;0.85;;;;;;;;;;4842686;29;20406;-51
2022/08/10 06:59:15;;;;;;;1.88;1.23;;;;;;;;;;4842525;29;20461;-47
2022/08/10 07:02:16;;;;;;;3.25;0.90;;;;;;;;;;4842363;29;20056;-51
2022/08/10 07:04:47;;;;;;;1.05;0.80;;;;;;;;;;4841913;29;20054;-48
2022/08/10 07:07:18;;;;;;;2.00;1.10;;;;;;;;;;4842255;29;20053;-48
2022/08/10 07:09:47;;;;;;;1.00;0.80;;;;;;;;;;4842553;29;20073;-49
2022/08/10 07:12:18;;;;;;;1.50;0.82;;;;;;;;;;4842272;29;20046;-52
2022/08/10 07:14:47;;;;;;;1.20;0.70;;;;;;;;;;4842143;29;20085;-47
2022/08/10 07:17:18;;;;;;;4.05;1.00;;;;;;;;;;4842150;29;20050;-51
2022/08/10 07:19:49;;;;;;;1.58;0.93;;;;;;;;;;4841311;29;20085;-49
2022/08/10 07:22:27;;;;;;;1.65;0.93;;;;;;;;;;4841846;29;20046;-48
2022/08/10 07:25:18;;;;;;;1.33;1.00;;;;;;;;;;4841782;29;20081;-51
2022/08/10 07:27:47;;;;;;;1.33;0.80;;;;;;;;;;4841888;29;20080;-47
2022/08/10 07:30:34;;;;;;;1.73;1.10;;;;;;;;;;4841906;29;20041;-49
2022/08/10 07:33:04;;;;;;;2.40;0.90;;;;;;;;;;4842036;29;20057;-47
2022/08/10 07:35:33;;;;;;;1.05;0.70;;;;;;;;;;4841800;29;20061;-49
2022/08/10 07:38:18;;;;;;;1.73;0.90;;;;;;;;;;4841875;29;20053;-48
2022/08/10 07:40:49;;;;;;;1.75;0.80;;;;;;;;;;4841742;29;20042;-51
2022/08/10 07:43:20;;;;;;;1.10;0.80;;;;;;;;;;4841800;29;20046;-48
2022/08/10 07:45:49;;;;;;;1.15;0.80;;;;;;;;;;4841706;29;20109;-47
2022/08/10 07:48:21;;;;;;;0.57;0.55;;;;;;;;;;4838090;29;20452;-47
2022/08/10 07:50:56;;;;;;;2.08;0.70;;;;;;;;;;4823415;29;20063;-50
2022/08/10 07:53:28;;;;;;;0.93;0.60;;;;;;;;;;4823650;29;20095;-49
2022/08/10 07:55:58;;;;;;;1.83;0.68;;;;;;;;;;4823403;29;20050;-48
2022/08/10 07:58:43;;;;;;;1.33;0.82;;;;;;;;;;4823036;29;20057;-51
2022/08/10 08:01:22;;;;;;;1.83;0.80;;;;;;;;;;4823232;29;20121;-48
2022/08/10 08:03:51;;;;;;;2.60;0.80;;;;;;;;;;4823200;29;20057;-49
2022/08/10 08:06:40;;;;;;;1.60;0.70;;;;;;;;;;4822911;29;20050;-48
2022/08/10 08:09:08;;;;;;;1.50;0.70;;;;;;;;;;4823055;29;20043;-52
2022/08/10 08:11:38;;;;;;;1.38;0.98;;;;;;;;;;4822274;29;20411;-48
2022/08/10 08:14:07;;;;;;;1.45;0.80;;;;;;;;;;4823024;29;20834;-47
2022/08/10 08:16:36;;;;;;;2.30;0.80;;;;;;;;;;4823051;29;20106;-50
2022/08/10 08:19:04;;;;;;;1.30;0.77;;;;;;;;;;4822806;29;20042;-49
2022/08/10 08:21:54;;;;;;;1.38;0.77;;;;;;;;;;4823091;29;20043;-49
2022/08/10 08:24:43;;;;;;;1.35;0.63;;;;;;;;;;4823314;29;20046;-47
2022/08/10 08:27:14;;;;;;;2.28;0.80;;;;;;;;;;4823159;29;20422;-50
2022/08/10 08:29:45;;;;;;;2.38;0.70;;;;;;;;;;4822809;29;20050;-45
2022/08/10 08:32:17;;;;;;;2.45;0.80;;;;;;;;;;4826476;29;20077;-49
2022/08/10 08:34:46;;;;;;;5.43;0.90;;;;;;;;;;4826577;29;20049;-50
2022/08/10 08:37:16;;;;;;;3.72;0.90;;;;;;;;;;4825605;29;20168;-49
2022/08/10 08:40:10;;;;;;;1.10;0.77;;;;;;;;;;4826472;29;20474;-48
2022/08/10 08:43:09;;;;;;;1.50;0.90;;;;;;;;;;4826405;29;20051;-49
2022/08/10 08:46:08;;;;;;;1.90;1.00;;;;;;;;;;4826288;29;20062;-53
2022/08/10 08:49:11;;;;;;;1.10;0.70;;;;;;;;;;4831715;29;20042;-49
2022/08/10 08:52:19;;;;;;;1.33;0.88;;;;;;;;;;4836720;29;20414;-51
2022/08/10 08:55:27;;;;;;;1.40;0.77;;;;;;;;;;4844410;29;20050;-46
2022/08/10 08:58:25;;;;;;;1.35;0.95;;;;;;;;;;4840341;29;20462;-49
2022/08/10 09:01:12;;;;;;;0.98;0.65;;;;;;;;;;4844621;29;20050;-48
2022/08/10 09:04:17;;;;;;;1.00;0.70;;;;;;;;;;4844518;29;20041;-50
2022/08/10 09:07:26;;;;;;;1.38;0.60;;;;;;;;;;4844314;29;20046;-50
2022/08/10 09:10:25;;;;;;;1.05;0.50;;;;;;;;;;4844466;29;20042;-48
2022/08/10 09:13:05;;;;;;;2.25;0.90;;;;;;;;;;4844209;29;20042;-49
2022/08/10 09:15:58;;;;;;;1.75;0.90;;;;;;;;;;4844086;29;20050;-51
2022/08/10 09:19:21;;;;;;;0.98;0.55;;;;;;;;;;4844070;29;20044;-48
2022/08/10 09:22:09;;;;;;;1.35;0.57;;;;;;;;;;4837997;29;20053;-47
2022/08/10 09:24:49;;;;;;;1.33;0.70;;;;;;;;;;4842959;29;20049;-48
2022/08/10 09:27:33;;;;;;;1.35;0.90;;;;;;;;;;4844062;29;20102;-51
2022/08/10 09:30:05;;;;;;;2.38;0.63;;;;;;;;;;4843871;29;20042;-49
2022/08/10 09:32:38;;;;;;;1.55;0.70;;;;;;;;;;4843503;29;20050;-47
2022/08/10 09:35:25;;;;;;;;;;;;;;;;;;4844278;29;20049;-50
2022/08/10 09:38:25;;;;;;;1.45;0.55;;;;;;;;;;4844269;29;20027;-50
2022/08/10 09:41:01;;;;;;;1.23;0.80;;;;;;;;;;4843652;29;20543;-49
2022/08/10 09:43:53;;;;;;;1.02;0.65;;;;;;;;;;4842775;29;20049;-49
2022/08/10 09:46:32;;;;;;;0.68;0.57;;;;;;;;;;4843721;29;20046;-50
2022/08/10 09:49:11;;;;;;;2.17;0.55;;;;;;;;;;4834792;29;20061;-50
2022/08/10 09:52:06;;;;;;;1.05;0.60;;;;;;;;;;4825662;29;20514;-51
2022/08/10 09:54:50;;;;;;;1.10;0.60;;;;;;;;;;4824966;29;20050;-48
2022/08/10 09:57:32;;;;;;;0.65;0.40;;;;;;;;;;4825170;29;20137;-49
2022/08/10 10:00:22;;;;;;;2.47;0.52;;;;;;;;;;4825211;29;20403;-50
2022/08/10 10:03:08;;;;;;;1.10;0.60;;;;;;;;;;4825262;29;20075;-47
2022/08/10 10:06:08;;;;;;;2.25;0.60;;;;;;;;;;4824834;29;20082;-52
2022/08/10 10:08:57;;;;;;;2.80;0.70;;;;;;;;;;4825023;29;20129;-50
2022/08/10 10:12:05;;;;;;;0.90;0.50;;;;;;;;;;4824660;29;20050;-49
2022/08/10 10:18:01;;;;;;;1.00;0.40;;;;;;;;;;4825119;29;20452;-51
2022/08/10 10:21:01;;;;;;;1.45;0.70;;;;;;;;;;4824871;29;20095;-49
2022/08/10 10:23:43;;;;;;;0.63;0.50;;;;;;;;;;4824613;29;20058;-52
2022/08/10 10:26:41;;;;;;;0.60;0.40;;;;;;;;;;4824616;29;20472;-49
2022/08/10 10:29:28;;;;;;;2.15;0.50;;;;;;;;;;4824805;29;20563;-52
2022/08/10 10:32:37;;;;;;;1.10;0.70;;;;;;;;;;4824612;29;20069;-51
2022/08/10 10:35:22;;;;;;;1.60;0.45;;;;;;;;;;4824448;29;20625;-49
2022/08/10 10:37:56;;;;;;;0.80;0.50;;;;;;;;;;4824801;29;20053;-51
2022/08/10 10:40:34;;;;;;;0.63;0.43;;;;;;;;;;4824666;29;20038;-51
2022/08/10 10:43:07;;;;;;;1.10;0.70;;;;;;;;;;4823105;29;20046;-50
2022/08/10 10:45:46;;;;;;;;;;;;;;;;;;4823554;29;20046;-49
2022/08/10 10:48:40;;;;;;;0.60;0.45;;;;;;;;;;4827635;29;19980;-49
2022/08/10 10:51:15;;;;;;;1.30;0.40;;;;;;;;;;4842684;29;20388;-51
2022/08/10 10:54:01;;;;;;;1.00;0.70;;;;;;;;;;4842283;29;20046;-50
2022/08/10 10:57:02;;;;;;;1.88;0.70;;;;;;;;;;4842424;29;20042;-52
2022/08/10 10:59:51;;;;;;;1.50;0.50;;;;;;;;;;4842404;29;20046;-51
2022/08/10 11:02:31;;;;;;;1.88;0.70;;;;;;;;;;4842385;29;20038;-52
2022/08/10 11:05:19;;;;;;;0.63;0.43;;;;;;;;;;4842187;29;20049;-50
2022/08/10 11:07:52;;;;;;;1.40;0.77;;;;;;;;;;4842563;29;20053;-48
2022/08/10 11:10:33;;;;;;;1.30;0.57;;;;;;;;;;4842083;29;20054;-48
2022/08/10 11:13:39;;;;;;;0.80;0.55;;;;;;;;;;4841689;29;20046;-51
2022/08/10 11:16:36;;;;;;;0.90;0.60;;;;;;;;;;4840612;29;20057;-49
2022/08/10 11:19:09;;;;;;;1.40;0.52;;;;;;;;;;4805707;29;20039;-50
2022/08/10 11:21:58;;;;;;;0.70;0.40;;;;;;;;;;4805461;29;20058;-48
2022/08/10 11:24:31;;;;;;;1.42;0.80;;;;;;;;;;4805315;29;20451;-52
2022/08/10 11:27:47;;;;;;;1.17;0.70;;;;;;;;;;4805940;29;20047;-51
2022/08/10 11:30:58;;;;;;;1.00;0.60;;;;;;;;;;4804563;29;20092;-51
2022/08/10 11:33:41;;;;;;;0.82;0.65;;;;;;;;;;4804723;29;20413;-46
2022/08/10 11:36:57;;;;;;;0.93;0.52;;;;;;;;;;4805264;29;20126;-47
2022/08/10 11:39:37;;;;;;;1.23;0.50;;;;;;;;;;4791762;29;20097;-49
2022/08/10 11:42:45;;;;;;;1.17;0.70;;;;;;;;;;4805560;29;20057;-45
2022/08/10 11:45:21;;;;;;;0.95;0.65;;;;;;;;;;4805250;29;20134;-46
2022/08/10 11:48:06;;;;;;;1.13;0.73;;;;;;;;;;4805320;29;20049;-45
2022/08/10 11:51:02;;;;;;;1.00;0.63;;;;;;;;;;4804798;29;20057;-46
2022/08/10 11:53:59;;;;;;;1.13;0.63;;;;;;;;;;4805135;29;20050;-46
2022/08/10 11:56:38;;;;;;;1.02;0.55;;;;;;;;;;4805205;29;20107;-49
2022/08/10 12:01:52;;;;;;;1.70;0.93;;;;;;;;;;4805087;29;20445;-47
2022/08/10 12:04:22;;;;;;;1.38;0.70;;;;;;;;;;4804748;29;20046;-46
2022/08/10 12:06:52;;;;;;;0.77;0.60;;;;;;;;;;4804882;29;20116;-51
2022/08/10 12:09:24;;;;;;;1.23;0.70;;;;;;;;;;4805063;29;20077;-47
2022/08/10 12:12:12;;;;;;;5.15;2.35;;;;;;;;;;4805154;29;20065;-46
2022/08/10 12:15:05;;;;;;;2.63;0.85;;;;;;;;;;4804752;29;20043;-47
2022/08/10 12:17:44;;;;;;;2.40;0.77;;;;;;;;;;4802608;29;20077;-46
2022/08/10 12:20:34;;;;;;;2.22;0.90;;;;;;;;;;4804915;29;20043;-51
2022/08/10 12:23:40;;;;;;;23.98;14.85;;;;;;;;;;4804601;29;20146;-46
2022/08/10 12:26:15;;;;;;;2.28;1.10;;;;;;;;;;4801511;29;20101;-48
2022/08/10 12:29:01;;;;;;;1.33;0.70;;;;;;;;;;4804618;29;20081;-50
2022/08/10 12:31:53;;;;;;;0.98;0.70;;;;;;;;;;4804653;29;20576;-47
2022/08/10 12:34:39;;;;;;;1.42;0.85;;;;;;;;;;4795103;29;20066;-51
2022/08/10 12:37:18;;;;;;;1.92;0.77;;;;;;;;;;4804451;29;20051;-49
2022/08/10 12:39:45;;;;;;;1.95;0.85;;;;;;;;;;4804573;29;20121;-45
2022/08/10 12:42:20;;;;;;;3.33;0.70;;;;;;;;;;4804644;29;20075;-48
2022/08/10 12:45:23;;;;;;;0.70;0.57;;;;;;;;;;4804523;29;20142;-47
2022/08/10 12:48:03;;;;;;;1.45;0.70;;;;;;;;;;4804823;29;20043;-50
2022/08/10 12:50:41;;;;;;;2.08;0.63;;;;;;;;;;4804402;29;20472;-47
2022/08/10 12:53:39;;;;;;;1.80;0.80;;;;;;;;;;4804479;29;20484;-46
2022/08/10 12:56:07;;;;;;;2.20;0.70;;;;;;;;;;4804382;29;20050;-47
2022/08/10 12:58:38;;;;;;;6.90;3.25;;;;;;;;;;4804288;29;20076;-49
2022/08/10 13:01:29;;;;;;;2.22;0.88;;;;;;;;;;4804540;29;20471;-45
2022/08/10 13:04:33;;;;;;;1.67;0.90;;;;;;;;;;4804368;29;20080;-48
2022/08/10 13:07:02;;;;;;;1.42;0.80;;;;;;;;;;4804536;29;20097;-46
2022/08/10 13:09:33;;;;;;;1.63;0.73;;;;;;;;;;4803894;29;20059;-46
2022/08/10 13:12:22;;;;;;;1.90;0.80;;;;;;;;;;4804558;29;20046;-46
2022/08/10 13:15:29;;;;;;;1.80;0.57;;;;;;;;;;4804335;29;20407;-47
2022/08/10 13:18:25;;;;;;;1.80;0.60;;;;;;;;;;4806386;29;20047;-46
2022/08/10 13:20:55;;;;;;;2.25;0.70;;;;;;;;;;4806837;29;20563;-45
2022/08/10 13:23:28;;;;;;;2.97;0.68;;;;;;;;;;4807742;29;20055;-45
2022/08/10 13:25:58;;;;;;;1.60;0.80;;;;;;;;;;4807734;29;20059;-45
2022/08/10 13:28:46;;;;;;;1.73;0.70;;;;;;;;;;4806293;29;20111;-45
2022/08/10 13:31:22;;;;;;;1.25;0.60;;;;;;;;;;4807288;29;20051;-44
2022/08/10 13:34:19;;;;;;;10.45;6.50;;;;;;;;;;4807606;29;20047;-46
2022/08/10 13:37:08;;;;;;;1.70;1.10;;;;;;;;;;4807546;29;20130;-46
2022/08/10 13:39:43;;;;;;;3.00;0.80;;;;;;;;;;4807288;29;20080;-47
2022/08/10 13:42:30;;;;;;;2.78;1.00;;;;;;;;;;4807310;29;20062;-47
2022/08/10 13:45:09;;;;;;;1.40;0.68;;;;;;;;;;4807351;29;20043;-45
2022/08/10 13:47:37;;;;;;;1.40;0.90;;;;;;;;;;4807262;29;20519;-44
2022/08/10 13:50:27;;;;;;;2.22;0.85;;;;;;;;;;4843429;29;20165;-45
2022/08/10 13:53:15;;;;;;;2.22;0.90;;;;;;;;;;4843800;29;20054;-48
2022/08/10 13:55:43;;;;;;;2.47;0.80;;;;;;;;;;4843676;29;20046;-46
2022/08/10 13:58:29;;;;;;;3.25;0.80;;;;;;;;;;4843636;29;20121;-46
2022/08/10 14:00:58;;;;;;;1.05;0.73;;;;;;;;;;4843501;29;20406;-46
2022/08/10 14:03:27;;;;;;;1.95;0.93;;;;;;;;;;4843434;29;20046;-45
2022/08/10 14:05:57;;;;;;;1.83;0.77;;;;;;;;;;4843715;29;20107;-47
2022/08/10 14:08:28;;;;;;;1.83;1.08;;;;;;;;;;4843649;29;20117;-50
2022/08/10 14:11:04;;;;;;;1.33;0.63;;;;;;;;;;4836373;29;20038;-48
2022/08/10 14:13:59;;;;;;;6.85;3.80;;;;;;;;;;4824875;29;20384;-46
2022/08/10 14:16:27;;;;;;;1.35;0.90;;;;;;;;;;4825249;29;20042;-47
2022/08/10 14:18:58;;;;;;;2.50;1.10;;;;;;;;;;4825055;29;20057;-47
2022/08/10 14:21:27;;;;;;;2.90;1.20;;;;;;;;;;4825068;29;20077;-48
2022/08/10 14:23:55;;;;;;;1.38;0.95;;;;;;;;;;4824723;29;20059;-47
2022/08/10 14:26:27;;;;;;;1.23;0.70;;;;;;;;;;4824748;29;20141;-45
2022/08/10 14:29:05;;;;;;;1.98;0.80;;;;;;;;;;4824520;29;20076;-46
2022/08/10 14:31:35;;;;;;;1.70;0.90;;;;;;;;;;4824785;29;20514;-48
2022/08/10 14:34:09;;;;;;;2.08;0.70;;;;;;;;;;4824703;29;20070;-48
2022/08/10 14:36:44;;;;;;;2.22;0.90;;;;;;;;;;4824338;29;20077;-46
2022/08/10 14:39:22;;;;;;;119.38;80.78;;;;;;;;;;4824664;29;20503;-46
2022/08/10 14:41:52;;;;;;;3.60;2.38;;;;;;;;;;4824470;29;20121;-49
2022/08/10 14:44:44;;;;;;;2.45;1.15;;;;;;;;;;4824483;29;20054;-46
2022/08/10 14:47:13;;;;;;;28.85;19.08;;;;;;;;;;4824380;29;20054;-46
2022/08/10 14:50:02;;;;;;;18.05;12.82;;;;;;;;;;4823950;29;20072;-49
2022/08/10 14:52:38;;;;;;;2.10;1.17;;;;;;;;;;4824153;29;20049;-46
2022/08/10 14:55:12;;;;;;;1.60;0.80;;;;;;;;;;4823970;29;20396;-47
2022/08/10 14:57:46;;;;;;;1.30;0.82;;;;;;;;;;4823163;29;20503;-50
2022/08/10 15:00:39;;;;;;;1.70;0.77;;;;;;;;;;4824121;29;20125;-47
2022/08/10 15:03:13;;;;;;;4.13;0.82;;;;;;;;;;4824336;29;20046;-46
2022/08/10 15:06:07;;;;;;;1.65;0.90;;;;;;;;;;4824154;29;20050;-46
2022/08/10 15:08:45;;;;;;;3.97;0.80;;;;;;;;;;4823734;29;20108;-47
2022/08/10 15:11:14;;;;;;;1.77;0.80;;;;;;;;;;4823830;29;20054;-49
2022/08/10 15:14:04;;;;;;;9.80;5.65;;;;;;;;;;4823985;29;20065;-45
2022/08/10 15:16:54;;;;;;;3.50;1.67;;;;;;;;;;4824127;29;20128;-44
2022/08/10 15:19:38;;;;;;;1.85;1.08;;;;;;;;;;4823726;29;20091;-46
2022/08/10 15:22:37;;;;;;;3.78;0.93;;;;;;;;;;4823114;29;20050;-46
2022/08/10 15:25:08;;;;;;;2.17;1.25;;;;;;;;;;4822273;29;20050;-46
2022/08/10 15:28:04;;;;;;;2.78;1.00;;;;;;;;;;4823726;29;20106;-46
2022/08/10 15:30:43;;;;;;;2.85;1.10;;;;;;;;;;4823316;29;20054;-45
2022/08/10 15:39:23;;;;;;;3.05;2.38;;;;;;;;;;4823471;29;20137;-46
2022/08/10 15:42:21;;;;;;;3.22;1.85;;;;;;;;;;4823445;29;20122;-45
2022/08/10 15:44:55;;;;;;;3.90;1.40;;;;;;;;;;4823459;29;20051;-49
2022/08/10 15:47:48;;;;;;;4.60;2.67;;;;;;;;;;4823125;29;20575;-50
2022/08/10 15:50:24;;;;;;;1.45;0.93;;;;;;;;;;4805236;29;20515;-45
2022/08/10 15:52:51;;;;;;;1.27;0.93;;;;;;;;;;4805204;29;20588;-45
2022/08/10 15:55:45;;;;;;;1.20;0.82;;;;;;;;;;4805153;29;20054;-46
2022/08/10 15:58:19;;;;;;;3.25;1.25;;;;;;;;;;4805053;29;20089;-46
2022/08/10 16:01:30;;;;;;;1.55;1.00;;;;;;;;;;4804996;29;20039;-46
2022/08/10 16:04:22;;;;;;;3.97;1.40;;;;;;;;;;4804747;29;20466;-46
2022/08/10 16:07:05;;;;;;;2.28;1.05;;;;;;;;;;4804791;29;20058;-48
2022/08/10 16:09:37;;;;;;;2.28;1.05;;;;;;;;;;4803263;29;20058;-48
2022/08/10 16:12:40;;;;;;;1.53;0.90;;;;;;;;;;4804543;29;20043;-46
2022/08/10 16:15:17;;;;;;;1.35;0.88;;;;;;;;;;4804773;29;20104;-48